KRTN/RTN METAR and TAF weather

Enter ICAO airport designator
Station Type Date Time Source
KRTN METAR 2020/06/01 15:53 UTC NOAA

KRTN 011553Z AUTO VRB03KT 10SM CLR 21/07 A3026 RMK AO2 SLP162 T02110067


Station Type Date Time Source
KRTN Decoded METAR 2020/06/01 15:53 UTC NOAA

Raton, Raton Municipal \ Crews Field Airport, NM, United States (KRTN) 36-44-31N 104-39-28W 1939M
Jun 01, 2020 - 11:53 AM EDT / 2020.06.01 1553 UTC
Wind: Variable at 3 MPH (3 KT):0
Visibility: 10 mile(s):0
Sky conditions: clear
Temperature: 70.0 F (21.1 C)
Dew Point: 44.1 F (6.7 C)
Relative Humidity: 39%
Pressure (altimeter): 30.26 in. Hg (1024 hPa)
ob: KRTN 011553Z AUTO VRB03KT 10SM CLR 21/07 A3026 RMK AO2 SLP162 T02110067
cycle: 16

Station Type Date Time Source
KRTN TAF UTC NOAA

Error!

Example: see airport list